Time;durP1;ratioP1;P1;durP2;ratioP2;P2;SDS_P1;SDS_P2;PMS_P1;PMS_P2;Temp;Humidity;BMP_temperature;BMP_pressure;BME280_temperature;BME280_humidity;BME280_pressure;Samples;Min_cycle;Max_cycle;Signal;HPM_P1;HPM_P2
2023/11/01 00:00:49;;;;;;;;;;;;;;;;;;5014952;28;19932;-70
2023/11/01 00:03:15;;;;;;;;;;;;;;;;;;5017620;28;19928;-70
2023/11/01 00:05:41;;;;;;;;;;;;;;;;;;5027570;28;20370;-71
2023/11/01 00:08:07;;;;;;;;;;;;;;;;;;5029008;28;19936;-71
2023/11/01 00:10:33;;;;;;;;;;;;;;;;;;5046618;28;19921;-70
2023/11/01 00:12:58;;;;;;;;;;;;;;;;;;4999248;28;20394;-70
2023/11/01 00:15:24;;;;;;;;;;;;;;;;;;5028470;28;20015;-70
2023/11/01 00:17:50;;;;;;;;;;;;;;;;;;5027800;28;19925;-71
2023/11/01 00:20:16;;;;;;;;;;;;;;;;;;5033903;28;19925;-71
2023/11/01 00:22:42;;;;;;;;;;;;;;;;;;5031378;28;19921;-71
2023/11/01 00:25:08;;;;;;;;;;;;;;;;;;5024689;28;19928;-70
2023/11/01 00:27:34;;;;;;;;;;;;;;;;;;5009569;28;20296;-70
2023/11/01 00:30:00;;;;;;;;;;;;;;;;;;5017000;28;19925;-71
2023/11/01 00:32:26;;;;;;;;;;;;;;;;;;5028382;28;19979;-71
2023/11/01 00:34:52;;;;;;;;;;;;;;;;;;5031212;28;19928;-71
2023/11/01 00:37:18;;;;;;;;;;;;;;;;;;5010115;28;19921;-70
2023/11/01 00:39:44;;;;;;;;;;;;;;;;;;5009552;28;20432;-71
2023/11/01 00:42:09;;;;;;;;;;;;;;;;;;5010501;28;19925;-71
2023/11/01 00:44:35;;;;;;;;;;;;;;;;;;5017263;28;20377;-71
2023/11/01 00:47:01;;;;;;;;;;;;;;;;;;5029785;28;19964;-71
2023/11/01 00:49:27;;;;;;;;;;;;;;;;;;5015852;28;19929;-71
2023/11/01 00:51:53;;;;;;;;;;;;;;;;;;5007923;28;20376;-70
2023/11/01 00:54:19;;;;;;;;;;;;;;;;;;5010172;28;20386;-71
2023/11/01 00:56:45;;;;;;;;;;;;;;;;;;5029589;28;19929;-71
2023/11/01 00:59:11;;;;;;;;;;;;;;;;;;5011323;28;20677;-71
2023/11/01 01:01:37;;;;;;;;;;;;;;;;;;5008954;28;19922;-70
2023/11/01 01:04:03;;;;;;;;;;;;;;;;;;5026821;28;19951;-71
2023/11/01 01:06:29;;;;;;;;;;;;;;;;;;5030097;28;20386;-70
2023/11/01 01:08:55;;;;;;;;;;;;;;;;;;5014021;28;19921;-71
2023/11/01 01:11:21;;;;;;;;;;;;;;;;;;5010304;28;20040;-71
2023/11/01 01:13:48;;;;;;;;;;;;;;;;;;5013946;28;19921;-71
2023/11/01 01:16:14;;;;;;;;;;;;;;;;;;5030270;28;19928;-71
2023/11/01 01:18:42;;;;;;;;;;;;;;;;;;5032513;28;19925;-71
2023/11/01 01:21:08;;;;;;;;;;;;;;;;;;5027686;28;20023;-71
2023/11/01 01:23:34;;;;;;;;;;;;;;;;;;5031106;28;20011;-71
2023/11/01 01:26:00;;;;;;;;;;;;;;;;;;5013276;28;20400;-71
2023/11/01 01:28:25;;;;;;;;;;;;;;;;;;5028153;28;19925;-71
2023/11/01 01:30:51;;;;;;;;;;;;;;;;;;5016171;28;19968;-71
2023/11/01 01:33:17;;;;;;;;;;;;;;;;;;5022563;28;19931;-71
2023/11/01 01:35:43;;;;;;;;;;;;;;;;;;5017395;28;19928;-71
2023/11/01 01:38:09;;;;;;;;;;;;;;;;;;5020199;28;19921;-71
2023/11/01 01:40:35;;;;;;;;;;;;;;;;;;5024716;28;20363;-71
2023/11/01 01:43:01;;;;;;;;;;;;;;;;;;5031566;28;19925;-71
2023/11/01 01:45:27;;;;;;;;;;;;;;;;;;5012852;28;19983;-71
2023/11/01 01:47:53;;;;;;;;;;;;;;;;;;5048884;28;20980;-71
2023/11/01 01:50:19;;;;;;;;;;;;;;;;;;5033988;28;19951;-71
2023/11/01 01:52:45;;;;;;;;;;;;;;;;;;5026745;28;19921;-71
2023/11/01 01:55:11;;;;;;;;;;;;;;;;;;5026306;28;19929;-71
2023/11/01 01:57:36;;;;;;;;;;;;;;;;;;5027593;28;19921;-71
2023/11/01 02:00:02;;;;;;;;;;;;;;;;;;5013924;28;19940;-71
2023/11/01 02:02:28;;;;;;;;;;;;;;;;;;5012080;28;19927;-71
2023/11/01 02:04:54;;;;;;;;;;;;;;;;;;5044469;28;20402;-70
2023/11/01 02:07:20;;;;;;;;;;;;;;;;;;5014366;28;20046;-71
2023/11/01 02:09:46;;;;;;;;;;;;;;;;;;5032381;28;19925;-71
2023/11/01 02:12:12;;;;;;;;;;;;;;;;;;5008642;28;20012;-71
2023/11/01 02:14:38;;;;;;;;;;;;;;;;;;5034077;28;20016;-70
2023/11/01 02:17:06;;;;;;;;;;;;;;;;;;5025599;28;20189;-71
2023/11/01 02:19:32;;;;;;;;;;;;;;;;;;5008887;28;19947;-71
2023/11/01 02:21:58;;;;;;;;;;;;;;;;;;5014093;28;20382;-71
2023/11/01 02:24:24;;;;;;;;;;;;;;;;;;5028777;28;20016;-70
2023/11/01 02:26:50;;;;;;;;;;;;;;;;;;5015489;28;20036;-71
2023/11/01 02:29:16;;;;;;;;;;;;;;;;;;5013993;28;19921;-70
2023/11/01 02:31:41;;;;;;;;;;;;;;;;;;5010876;28;19932;-71
2023/11/01 02:34:08;;;;;;;;;;;;;;;;;;5017645;28;19936;-71
2023/11/01 02:36:34;;;;;;;;;;;;;;;;;;5018109;28;19921;-70
2023/11/01 02:39:00;;;;;;;;;;;;;;;;;;5035245;28;20112;-71
2023/11/01 02:41:26;;;;;;;;;;;;;;;;;;5028731;28;19983;-71
2023/11/01 02:43:52;;;;;;;;;;;;;;;;;;5026790;28;20326;-71
2023/11/01 02:46:18;;;;;;;;;;;;;;;;;;5034398;28;19925;-71
2023/11/01 02:48:44;;;;;;;;;;;;;;;;;;4998648;28;19928;-71
2023/11/01 02:51:10;;;;;;;;;;;;;;;;;;5030427;28;19928;-71
2023/11/01 02:53:36;;;;;;;;;;;;;;;;;;5034663;28;19921;-70
2023/11/01 02:56:02;;;;;;;;;;;;;;;;;;5016208;28;20381;-71
2023/11/01 02:58:30;;;;;;;;;;;;;;;;;;5028432;28;19925;-71
2023/11/01 03:00:55;;;;;;;;;;;;;;;;;;4997864;28;19936;-71
2023/11/01 03:03:21;;;;;;;;;;;;;;;;;;5014731;28;19929;-71
2023/11/01 03:05:47;;;;;;;;;;;;;;;;;;5015371;28;20283;-71
2023/11/01 03:08:14;;;;;;;;;;;;;;;;;;5015421;28;19944;-70
2023/11/01 03:10:40;;;;;;;;;;;;;;;;;;5031516;28;19931;-71
2023/11/01 03:13:05;;;;;;;;;;;;;;;;;;5017609;28;19921;-71
2023/11/01 03:15:31;;;;;;;;;;;;;;;;;;5029839;28;19921;-71
2023/11/01 03:17:57;;;;;;;;;;;;;;;;;;5030967;28;19925;-71
2023/11/01 03:20:23;;;;;;;;;;;;;;;;;;5036214;28;19943;-71
2023/11/01 03:22:49;;;;;;;;;;;;;;;;;;5018809;28;19944;-71
2023/11/01 03:25:15;;;;;;;;;;;;;;;;;;5000417;28;19921;-71
2023/11/01 03:27:41;;;;;;;;;;;;;;;;;;5029035;28;19933;-71
2023/11/01 03:30:07;;;;;;;;;;;;;;;;;;5010364;28;19932;-71
2023/11/01 03:32:33;;;;;;;;;;;;;;;;;;5038904;28;20016;-71
2023/11/01 03:34:59;;;;;;;;;;;;;;;;;;5048469;28;20015;-71
2023/11/01 03:37:25;;;;;;;;;;;;;;;;;;5040379;28;20354;-71
2023/11/01 03:39:50;;;;;;;;;;;;;;;;;;5035428;28;19975;-71
2023/11/01 03:42:16;;;;;;;;;;;;;;;;;;5042917;28;19982;-70
2023/11/01 03:44:42;;;;;;;;;;;;;;;;;;5019548;28;19921;-70
2023/11/01 03:47:08;;;;;;;;;;;;;;;;;;5047335;28;19925;-71
2023/11/01 03:49:34;;;;;;;;;;;;;;;;;;5052954;28;19920;-71
2023/11/01 03:52:01;;;;;;;;;;;;;;;;;;5039951;28;19981;-71
2023/11/01 03:54:27;;;;;;;;;;;;;;;;;;5048494;28;19972;-71
2023/11/01 03:56:53;;;;;;;;;;;;;;;;;;5045113;28;20401;-71
2023/11/01 03:59:18;;;;;;;;;;;;;;;;;;5031810;28;19990;-71
2023/11/01 04:01:44;;;;;;;;;;;;;;;;;;5034864;28;20050;-71
2023/11/01 04:04:10;;;;;;;;;;;;;;;;;;5050195;28;20434;-71
2023/11/01 04:06:37;;;;;;;;;;;;;;;;;;5049030;28;19925;-71
2023/11/01 04:09:03;;;;;;;;;;;;;;;;;;5048134;28;20385;-71
2023/11/01 04:11:30;;;;;;;;;;;;;;;;;;5035640;28;20394;-71
2023/11/01 04:13:56;;;;;;;;;;;;;;;;;;5043879;28;19921;-71
2023/11/01 04:16:22;;;;;;;;;;;;;;;;;;5042797;28;20569;-71
2023/11/01 04:18:48;;;;;;;;;;;;;;;;;;5012705;28;19935;-71
2023/11/01 04:21:14;;;;;;;;;;;;;;;;;;5043224;28;19925;-71
2023/11/01 04:23:40;;;;;;;;;;;;;;;;;;5036299;28;20401;-70
2023/11/01 04:26:06;;;;;;;;;;;;;;;;;;5036340;28;19925;-72
2023/11/01 04:28:32;;;;;;;;;;;;;;;;;;5051511;28;19933;-70
2023/11/01 04:30:59;;;;;;;;;;;;;;;;;;5012867;28;19982;-71
2023/11/01 04:33:25;;;;;;;;;;;;;;;;;;5027665;28;19925;-71
2023/11/01 04:35:53;;;;;;;;;;;;;;;;;;4996834;28;19977;-70
2023/11/01 04:38:19;;;;;;;;;;;;;;;;;;5031297;28;19972;-70
2023/11/01 04:40:45;;;;;;;;;;;;;;;;;;5013415;28;19971;-71
2023/11/01 04:43:11;;;;;;;;;;;;;;;;;;4996877;28;20008;-71
2023/11/01 04:45:37;;;;;;;;;;;;;;;;;;5009088;28;19960;-71
2023/11/01 04:48:03;;;;;;;;;;;;;;;;;;5027755;28;19960;-71
2023/11/01 04:50:29;;;;;;;;;;;;;;;;;;5016986;28;19921;-71
2023/11/01 04:52:55;;;;;;;;;;;;;;;;;;5019381;28;19931;-71
2023/11/01 04:55:21;;;;;;;;;;;;;;;;;;5031177;28;19933;-71
2023/11/01 04:57:47;;;;;;;;;;;;;;;;;;5029172;28;19975;-71
2023/11/01 05:00:15;;;;;;;;;;;;;;;;;;5011151;28;19933;-71
2023/11/01 05:02:41;;;;;;;;;;;;;;;;;;5033532;28;19933;-71
2023/11/01 05:05:08;;;;;;;;;;;;;;;;;;5032349;28;19921;-71
2023/11/01 05:07:34;;;;;;;;;;;;;;;;;;5032371;28;19972;-71
2023/11/01 05:10:00;;;;;;;;;;;;;;;;;;5015593;28;19979;-71
2023/11/01 05:12:26;;;;;;;;;;;;;;;;;;5014779;28;19975;-71
2023/11/01 05:14:52;;;;;;;;;;;;;;;;;;5028732;28;19928;-71
2023/11/01 05:17:18;;;;;;;;;;;;;;;;;;5021328;28;20827;-71
2023/11/01 05:19:43;;;;;;;;;;;;;;;;;;5028747;28;19929;-71
2023/11/01 05:22:09;;;;;;;;;;;;;;;;;;5014871;28;19929;-71
2023/11/01 05:24:35;;;;;;;;;;;;;;;;;;5024681;28;19925;-71
2023/11/01 05:27:01;;;;;;;;;;;;;;;;;;5030759;28;19933;-71
2023/11/01 05:29:27;;;;;;;;;;;;;;;;;;5010858;28;19925;-71
2023/11/01 05:31:53;;;;;;;;;;;;;;;;;;5025739;28;19921;-71
2023/11/01 05:34:19;;;;;;;;;;;;;;;;;;5009401;28;19921;-71
2023/11/01 05:36:45;;;;;;;;;;;;;;;;;;5046880;28;19921;-71
2023/11/01 05:39:11;;;;;;;;;;;;;;;;;;5025909;28;19928;-71
2023/11/01 05:41:37;;;;;;;;;;;;;;;;;;5009915;28;20009;-71
2023/11/01 05:44:02;;;;;;;;;;;;;;;;;;5007936;28;19929;-71
2023/11/01 05:46:29;;;;;;;;;;;;;;;;;;5010333;28;20310;-71
2023/11/01 05:48:55;;;;;;;;;;;;;;;;;;5011412;28;20286;-71
2023/11/01 05:51:21;;;;;;;;;;;;;;;;;;5027514;28;19931;-71
2023/11/01 05:53:47;;;;;;;;;;;;;;;;;;5028048;28;20011;-71
2023/11/01 05:56:15;;;;;;;;;;;;;;;;;;5025031;28;19951;-71
2023/11/01 05:58:40;;;;;;;;;;;;;;;;;;5029786;28;20565;-72
2023/11/01 06:01:07;;;;;;;;;;;;;;;;;;5031877;28;19975;-71
2023/11/01 06:03:32;;;;;;;;;;;;;;;;;;5033555;28;19929;-71
2023/11/01 06:05:58;;;;;;;;;;;;;;;;;;5014171;28;19921;-71
2023/11/01 06:08:24;;;;;;;;;;;;;;;;;;5034561;28;19928;-71
2023/11/01 06:10:51;;;;;;;;;;;;;;;;;;5024990;28;20369;-71
2023/11/01 06:13:18;;;;;;;;;;;;;;;;;;5037557;28;19921;-71
2023/11/01 06:15:44;;;;;;;;;;;;;;;;;;5036463;28;20334;-71
2023/11/01 06:18:09;;;;;;;;;;;;;;;;;;5023583;28;19947;-71
2023/11/01 06:20:35;;;;;;;;;;;;;;;;;;5026666;28;20004;-71
2023/11/01 06:23:04;;;;;;;;;;;;;;;;;;5024427;28;20027;-71
2023/11/01 06:25:30;;;;;;;;;;;;;;;;;;5046492;28;19928;-71
2023/11/01 06:27:56;;;;;;;;;;;;;;;;;;5047068;28;19925;-71
2023/11/01 06:30:22;;;;;;;;;;;;;;;;;;5042463;28;19983;-70
2023/11/01 06:32:48;;;;;;;;;;;;;;;;;;5036218;28;20338;-71
2023/11/01 06:35:14;;;;;;;;;;;;;;;;;;5043125;28;19925;-71
2023/11/01 06:37:39;;;;;;;;;;;;;;;;;;5034280;28;19925;-71
2023/11/01 06:40:05;;;;;;;;;;;;;;;;;;5033387;28;20453;-71
2023/11/01 06:42:31;;;;;;;;;;;;;;;;;;5016848;28;19925;-71
2023/11/01 06:44:57;;;;;;;;;;;;;;;;;;5054030;28;19929;-70
2023/11/01 06:47:23;;;;;;;;;;;;;;;;;;5038268;28;20071;-71
2023/11/01 06:49:49;;;;;;;;;;;;;;;;;;5031161;28;19929;-71
2023/11/01 06:52:15;;;;;;;;;;;;;;;;;;5000094;28;20008;-71
2023/11/01 06:54:43;;;;;;;;;;;;;;;;;;5018693;28;20016;-71
2023/11/01 06:57:10;;;;;;;;;;;;;;;;;;5047263;28;19928;-71
2023/11/01 06:59:36;;;;;;;;;;;;;;;;;;5033820;28;19968;-71
2023/11/01 07:02:02;;;;;;;;;;;;;;;;;;5016696;28;20067;-71
2023/11/01 07:04:28;;;;;;;;;;;;;;;;;;5051870;28;20485;-71
2023/11/01 07:06:54;;;;;;;;;;;;;;;;;;5024148;28;19921;-72
2023/11/01 07:09:19;;;;;;;;;;;;;;;;;;5034719;28;19932;-71
2023/11/01 07:11:45;;;;;;;;;;;;;;;;;;5040327;28;20258;-71
2023/11/01 07:14:11;;;;;;;;;;;;;;;;;;5036231;28;19933;-71
2023/11/01 07:16:39;;;;;;;;;;;;;;;;;;5016629;28;20255;-71
2023/11/01 07:19:06;;;;;;;;;;;;;;;;;;5036273;28;20419;-71
2023/11/01 07:21:32;;;;;;;;;;;;;;;;;;5003460;28;20367;-71
2023/11/01 07:23:58;;;;;;;;;;;;;;;;;;5035343;28;19932;-71
2023/11/01 07:26:24;;;;;;;;;;;;;;;;;;5036472;28;20036;-71
2023/11/01 07:28:50;;;;;;;;;;;;;;;;;;5031724;28;20013;-71
2023/11/01 07:31:15;;;;;;;;;;;;;;;;;;5034293;28;19921;-71
2023/11/01 07:33:42;;;;;;;;;;;;;;;;;;5038619;28;19929;-71
2023/11/01 07:36:08;;;;;;;;;;;;;;;;;;5020706;28;19928;-71
2023/11/01 07:38:34;;;;;;;;;;;;;;;;;;5014778;28;19929;-71
2023/11/01 07:41:00;;;;;;;;;;;;;;;;;;5028996;28;19929;-70
2023/11/01 07:43:26;;;;;;;;;;;;;;;;;;5029024;28;20374;-71
2023/11/01 07:45:53;;;;;;;;;;;;;;;;;;5025514;28;19921;-71
2023/11/01 07:48:18;;;;;;;;;;;;;;;;;;5030223;28;19924;-71
2023/11/01 07:50:44;;;;;;;;;;;;;;;;;;5026491;28;20065;-70
2023/11/01 07:53:10;;;;;;;;;;;;;;;;;;5029876;28;20406;-70
2023/11/01 07:55:36;;;;;;;;;;;;;;;;;;5092842;23;19983;-59
2023/11/01 07:58:02;;;;;;;;;;;;;;;;;;5097731;27;19971;-60
2023/11/01 08:00:28;;;;;;;;;;;;;;;;;;5100538;27;19928;-60
2023/11/01 08:02:54;;;;;;;;;;;;;;;;;;5107361;27;19935;-60
2023/11/01 08:05:20;;;;;;;;;;;;;;;;;;5110391;27;20010;-59
2023/11/01 08:07:46;;;;;;;;;;;;;;;;;;5090461;28;20452;-60
2023/11/01 08:10:12;;;;;;;;;;;;;;;;;;5105306;27;19924;-59
2023/11/01 08:12:38;;;;;;;;;;;;;;;;;;5112825;28;19942;-60
2023/11/01 08:15:04;;;;;;;;;;;;;;;;;;5112678;28;20508;-60
2023/11/01 08:17:30;;;;;;;;;;;;;;;;;;5106368;28;20005;-60
2023/11/01 08:19:55;;;;;;;;;;;;;;;;;;5076975;28;19920;-60
2023/11/01 08:22:21;;;;;;;;;;;;;;;;;;5113318;27;19977;-60
2023/11/01 08:24:47;;;;;;;;;;;;;;;;;;5108055;28;19919;-60
2023/11/01 08:27:13;;;;;;;;;;;;;;;;;;5111934;28;19994;-60
2023/11/01 08:29:42;;;;;;;;;;;;;;;;;;5107055;28;19920;-60
2023/11/01 08:32:08;;;;;;;;;;;;;;;;;;5098032;28;19934;-60
2023/11/01 08:34:34;;;;;;;;;;;;;;;;;;5113981;28;19920;-60
2023/11/01 08:37:00;;;;;;;;;;;;;;;;;;5114131;28;19973;-60
2023/11/01 08:39:26;;;;;;;;;;;;;;;;;;5112015;28;19927;-60
2023/11/01 08:41:52;;;;;;;;;;;;;;;;;;5088568;28;19919;-60
2023/11/01 08:44:18;;;;;;;;;;;;;;;;;;5108774;28;19923;-60
2023/11/01 08:46:44;;;;;;;;;;;;;;;;;;5104401;27;19924;-60
2023/11/01 08:49:11;;;;;;;;;;;;;;;;;;5097142;28;19926;-60
2023/11/01 08:51:38;;;;;;;;;;;;;;;;;;5079342;28;19963;-59
2023/11/01 08:54:04;;;;;;;;;;;;;;;;;;5102239;28;19920;-59
2023/11/01 08:56:30;;;;;;;;;;;;;;;;;;5113591;27;19988;-59
2023/11/01 08:58:56;;;;;;;;;;;;;;;;;;5078232;28;19928;-59
2023/11/01 09:01:24;;;;;;;;;;;;;;;;;;5109451;27;19919;-60
2023/11/01 09:03:50;;;;;;;;;;;;;;;;;;5097967;28;19920;-60
2023/11/01 09:06:16;;;;;;;;;;;;;;;;;;5104540;28;20380;-60
2023/11/01 09:08:42;;;;;;;;;;;;;;;;;;5079905;28;19928;-59
2023/11/01 09:11:08;;;;;;;;;;;;;;;;;;5108785;28;20010;-60
2023/11/01 09:13:34;;;;;;;;;;;;;;;;;;5111896;28;20006;-60
2023/11/01 09:16:00;;;;;;;;;;;;;;;;;;5099316;28;20679;-59
2023/11/01 09:18:26;;;;;;;;;;;;;;;;;;5107280;27;19936;-60
2023/11/01 09:20:52;;;;;;;;;;;;;;;;;;5102461;28;20377;-60
2023/11/01 09:23:18;;;;;;;;;;;;;;;;;;5110265;28;19924;-60
2023/11/01 09:25:44;;;;;;;;;;;;;;;;;;5098294;28;19938;-60
2023/11/01 09:28:10;;;;;;;;;;;;;;;;;;5086386;28;20286;-60
2023/11/01 09:30:36;;;;;;;;;;;;;;;;;;5117561;27;19927;-60
2023/11/01 09:33:02;;;;;;;;;;;;;;;;;;5116558;27;19927;-60
2023/11/01 09:35:29;;;;;;;;;;;;;;;;;;5104807;27;19930;-60
2023/11/01 09:37:55;;;;;;;;;;;;;;;;;;5108067;28;20011;-59
2023/11/01 09:40:20;;;;;;;;;;;;;;;;;;5092294;28;20035;-60
2023/11/01 09:42:47;;;;;;;;;;;;;;;;;;5094120;28;19924;-60
2023/11/01 09:45:13;;;;;;;;;;;;;;;;;;5077288;28;19927;-59
2023/11/01 09:47:39;;;;;;;;;;;;;;;;;;5107913;28;20372;-60
2023/11/01 09:50:05;;;;;;;;;;;;;;;;;;5107249;27;19923;-59
2023/11/01 09:52:31;;;;;;;;;;;;;;;;;;5105650;28;19926;-60
2023/11/01 09:54:57;;;;;;;;;;;;;;;;;;5111751;28;19938;-59
2023/11/01 09:57:23;;;;;;;;;;;;;;;;;;5095968;28;19920;-59
2023/11/01 09:59:49;;;;;;;;;;;;;;;;;;5087337;28;19923;-60
2023/11/01 10:02:15;;;;;;;;;;;;;;;;;;5109882;28;19952;-59
2023/11/01 10:04:40;;;;;;;;;;;;;;;;;;5110524;28;19928;-60
2023/11/01 10:07:06;;;;;;;;;;;;;;;;;;5115491;27;19967;-60
2023/11/01 10:09:32;;;;;;;;;;;;;;;;;;5088251;28;21676;-60
2023/11/01 10:11:58;;;;;;;;;;;;;;;;;;5086149;28;19927;-60
2023/11/01 10:14:24;;;;;;;;;;;;;;;;;;5111775;27;19984;-60
2023/11/01 10:16:50;;;;;;;;;;;;;;;;;;5109439;28;19945;-60
2023/11/01 10:19:16;;;;;;;;;;;;;;;;;;5122876;27;19928;-60
2023/11/01 10:21:42;;;;;;;;;;;;;;;;;;5122281;27;20304;-60
2023/11/01 10:24:08;;;;;;;;;;;;;;;;;;5115294;28;20019;-60
2023/11/01 10:26:34;;;;;;;;;;;;;;;;;;5111819;28;19929;-60
2023/11/01 10:29:00;;;;;;;;;;;;;;;;;;5074362;28;20002;-60
2023/11/01 10:31:26;;;;;;;;;;;;;;;;;;5099198;28;19957;-60
2023/11/01 10:33:52;;;;;;;;;;;;;;;;;;5106275;28;19935;-59
2023/11/01 10:36:19;;;;;;;;;;;;;;;;;;5109559;28;20330;-59
2023/11/01 10:38:45;;;;;;;;;;;;;;;;;;5111440;28;19931;-59
2023/11/01 10:41:11;;;;;;;;;;;;;;;;;;5092526;28;19928;-59
2023/11/01 10:43:37;;;;;;;;;;;;;;;;;;5109697;28;19927;-60
2023/11/01 10:46:03;;;;;;;;;;;;;;;;;;5087475;28;19919;-60
2023/11/01 10:48:29;;;;;;;;;;;;;;;;;;5105328;28;20444;-60
2023/11/01 10:50:55;;;;;;;;;;;;;;;;;;5105206;28;19945;-60
2023/11/01 10:53:24;;;;;;;;;;;;;;;;;;5084252;28;19928;-60
2023/11/01 10:55:53;;;;;;;;;;;;;;;;;;5104913;28;20391;-60
2023/11/01 10:58:20;;;;;;;;;;;;;;;;;;5082312;28;20402;-59
2023/11/01 11:00:46;;;;;;;;;;;;;;;;;;5109504;28;19920;-59
2023/11/01 11:03:12;;;;;;;;;;;;;;;;;;5109898;28;19924;-59
2023/11/01 11:05:38;;;;;;;;;;;;;;;;;;5110429;28;19926;-60
2023/11/01 11:08:04;;;;;;;;;;;;;;;;;;5109816;28;19919;-60
2023/11/01 11:10:32;;;;;;;;;;;;;;;;;;5116791;28;19935;-59
2023/11/01 11:12:57;;;;;;;;;;;;;;;;;;5103799;28;20265;-59
2023/11/01 11:15:23;;;;;;;;;;;;;;;;;;5103734;28;19927;-60
2023/11/01 11:17:49;;;;;;;;;;;;;;;;;;5103298;28;20023;-60
2023/11/01 11:20:16;;;;;;;;;;;;;;;;;;5104088;28;19948;-60
2023/11/01 11:22:42;;;;;;;;;;;;;;;;;;5110350;28;19930;-59
2023/11/01 11:25:08;;;;;;;;;;;;;;;;;;5079097;27;20006;-60
2023/11/01 11:27:34;;;;;;;;;;;;;;;;;;5100894;27;19928;-62
2023/11/01 11:30:00;;;;;;;;;;;;;;;;;;5075706;28;20448;-60
2023/11/01 11:32:26;;;;;;;;;;;;;;;;;;5100349;28;19971;-59
2023/11/01 11:34:52;;;;;;;;;;;;;;;;;;5114486;28;20003;-59
2023/11/01 11:37:19;;;;;;;;;;;;;;;;;;5096492;28;19928;-59
2023/11/01 11:39:45;;;;;;;;;;;;;;;;;;5115266;28;20002;-59
2023/11/01 11:42:11;;;;;;;;;;;;;;;;;;5115779;27;19930;-59
2023/11/01 11:44:37;;;;;;;;;;;;;;;;;;5076601;28;19920;-59
2023/11/01 11:47:05;;;;;;;;;;;;;;;;;;5075103;27;19924;-59
2023/11/01 11:49:32;;;;;;;;;;;;;;;;;;5113025;28;20528;-59
2023/11/01 11:51:58;;;;;;;;;;;;;;;;;;5114805;28;19924;-59
2023/11/01 11:54:24;;;;;;;;;;;;;;;;;;5114624;28;19923;-59
2023/11/01 11:56:50;;;;;;;;;;;;;;;;;;5114682;28;20022;-59
2023/11/01 11:59:16;;;;;;;;;;;;;;;;;;5104296;28;19986;-59
2023/11/01 12:01:42;;;;;;;;;;;;;;;;;;5100872;27;19935;-60
2023/11/01 12:04:08;;;;;;;;;;;;;;;;;;5099747;27;20011;-60
2023/11/01 12:06:34;;;;;;;;;;;;;;;;;;5099820;28;20326;-60
2023/11/01 12:09:00;;;;;;;;;;;;;;;;;;5110003;28;19963;-60
2023/11/01 12:11:26;;;;;;;;;;;;;;;;;;5103818;28;20030;-60
2023/11/01 12:13:52;;;;;;;;;;;;;;;;;;5119527;27;19924;-60
2023/11/01 12:16:18;;;;;;;;;;;;;;;;;;5087193;28;19928;-60
2023/11/01 12:18:45;;;;;;;;;;;;;;;;;;5109814;28;21913;-60
2023/11/01 12:21:12;;;;;;;;;;;;;;;;;;5113483;28;19988;-60
2023/11/01 12:23:38;;;;;;;;;;;;;;;;;;5113892;27;19919;-60
2023/11/01 12:26:03;;;;;;;;;;;;;;;;;;5108836;27;20063;-60
2023/11/01 12:28:29;;;;;;;;;;;;;;;;;;5097270;27;20353;-62
2023/11/01 12:30:56;;;;;;;;;;;;;;;;;;5084494;28;19962;-62
2023/11/01 12:33:23;;;;;;;;;;;;;;;;;;5103998;28;19927;-62
2023/11/01 12:35:49;;;;;;;;;;;;;;;;;;5100691;28;19919;-64
2023/11/01 12:38:16;;;;;;;;;;;;;;;;;;5074844;28;19974;-65
2023/11/01 12:40:41;;;;;;;;;;;;;;;;;;5080923;28;20628;-65
2023/11/01 12:43:08;;;;;;;;;;;;;;;;;;5085773;28;20019;-65
2023/11/01 12:45:34;;;;;;;;;;;;;;;;;;5095059;27;19945;-65
2023/11/01 12:48:00;;;;;;;;;;;;;;;;;;5094137;28;19927;-65
2023/11/01 12:50:26;;;;;;;;;;;;;;;;;;5117001;27;19946;-65
2023/11/01 12:52:52;;;;;;;;;;;;;;;;;;5112509;28;20373;-65
2023/11/01 12:55:17;;;;;;;;;;;;;;;;;;5098438;28;19935;-65
2023/11/01 12:57:46;;;;;;;;;;;;;;;;;;5075419;28;19935;-65
2023/11/01 13:00:12;;;;;;;;;;;;;;;;;;5082860;28;19928;-65
2023/11/01 13:02:38;;;;;;;;;;;;;;;;;;5090560;28;19927;-65
2023/11/01 13:05:04;;;;;;;;;;;;;;;;;;5093603;28;19924;-65
2023/11/01 13:07:30;;;;;;;;;;;;;;;;;;5080046;28;19984;-65
2023/11/01 13:09:56;;;;;;;;;;;;;;;;;;5086977;28;19926;-65
2023/11/01 13:12:22;;;;;;;;;;;;;;;;;;5113913;27;19924;-65
2023/11/01 13:14:47;;;;;;;;;;;;;;;;;;5084527;28;19920;-65
2023/11/01 13:17:13;;;;;;;;;;;;;;;;;;5086470;28;20365;-65
2023/11/01 13:19:41;;;;;;;;;;;;;;;;;;5099596;27;19939;-65
2023/11/01 13:22:07;;;;;;;;;;;;;;;;;;5092668;28;20010;-65
2023/11/01 13:24:32;;;;;;;;;;;;;;;;;;5094556;28;20010;-65
2023/11/01 13:27:03;;;;;;;;;;;;;;;;;;5092098;28;20416;-65
2023/11/01 13:29:29;;;;;;;;;;;;;;;;;;5104292;28;19920;-65
2023/11/01 13:31:55;;;;;;;;;;;;;;;;;;5085983;28;19969;-65
2023/11/01 13:34:21;;;;;;;;;;;;;;;;;;5091807;28;19951;-65
2023/11/01 13:36:47;;;;;;;;;;;;;;;;;;5073021;28;19924;-65
2023/11/01 13:39:13;;;;;;;;;;;;;;;;;;5092784;28;20111;-64
2023/11/01 13:41:39;;;;;;;;;;;;;;;;;;5094439;28;19965;-64
2023/11/01 13:44:05;;;;;;;;;;;;;;;;;;5104932;28;19924;-64
2023/11/01 13:46:31;;;;;;;;;;;;;;;;;;5073306;28;19924;-64
2023/11/01 13:48:57;;;;;;;;;;;;;;;;;;5116995;27;20322;-64
2023/11/01 13:51:23;;;;;;;;;;;;;;;;;;5085557;28;19928;-64
2023/11/01 13:53:49;;;;;;;;;;;;;;;;;;5113713;22;19928;31
2023/11/01 13:56:15;;;;;;;;;;;;;;;;;;5012219;28;20313;-69
2023/11/01 13:58:43;;;;;;;;;;;;;;;;;;5041882;28;19943;-69
2023/11/01 14:01:09;;;;;;;;;;;;;;;;;;5051836;28;20007;-69
2023/11/01 14:03:36;;;;;;;;;;;;;;;;;;5044408;28;20004;-69
2023/11/01 14:06:02;;;;;;;;;;;;;;;;;;5047992;28;20003;-69
2023/11/01 14:08:28;;;;;;;;;;;;;;;;;;5051909;28;20016;-69
2023/11/01 14:10:53;;;;;;;;;;;;;;;;;;5046850;28;19927;-68
2023/11/01 14:13:19;;;;;;;;;;;;;;;;;;5051159;28;20378;-68
2023/11/01 14:15:47;;;;;;;;;;;;;;;;;;5051889;28;20358;-68
2023/11/01 14:18:19;;;;;;;;;;;;;;;;;;5042334;28;19928;-68
2023/11/01 14:20:45;;;;;;;;;;;;;;;;;;5009900;28;20656;-68
2023/11/01 14:23:10;;;;;;;;;;;;;;;;;;5032742;28;19927;-68
2023/11/01 14:25:36;;;;;;;;;;;;;;;;;;5050173;28;20345;-68
2023/11/01 14:28:02;;;;;;;;;;;;;;;;;;5024804;28;19967;-68
2023/11/01 14:30:28;;;;;;;;;;;;;;;;;;5039300;28;20412;-68
2023/11/01 14:32:54;;;;;;;;;;;;;;;;;;5041663;28;19929;-68
2023/11/01 14:35:20;;;;;;;;;;;;;;;;;;5047200;28;19925;-68
2023/11/01 14:37:46;;;;;;;;;;;;;;;;;;5013342;28;19924;-68
2023/11/01 14:40:12;;;;;;;;;;;;;;;;;;5063038;28;19931;-68
2023/11/01 14:42:38;;;;;;;;;;;;;;;;;;5056418;28;20262;-68
2023/11/01 14:45:07;;;;;;;;;;;;;;;;;;5059999;28;20480;-69
2023/11/01 14:47:36;;;;;;;;;;;;;;;;;;5063420;28;19924;-69
2023/11/01 14:50:02;;;;;;;;;;;;;;;;;;5052117;28;20449;-69
2023/11/01 14:52:28;;;;;;;;;;;;;;;;;;5067492;28;20297;-69
2023/11/01 14:54:55;;;;;;;;;;;;;;;;;;5051766;28;19925;-69
2023/11/01 14:57:21;;;;;;;;;;;;;;;;;;5068708;28;19955;-69
2023/11/01 14:59:47;;;;;;;;;;;;;;;;;;5057625;28;20489;-69
2023/11/01 15:02:13;;;;;;;;;;;;;;;;;;5057620;28;19932;-69
2023/11/01 15:04:39;;;;;;;;;;;;;;;;;;5055857;28;19936;-69
2023/11/01 15:07:05;;;;;;;;;;;;;;;;;;5057050;28;19921;-69
2023/11/01 15:09:31;;;;;;;;;;;;;;;;;;5059341;28;19932;-69
2023/11/01 15:11:57;;;;;;;;;;;;;;;;;;5068578;28;19925;-69
2023/11/01 15:14:23;;;;;;;;;;;;;;;;;;5047843;28;19968;-69
2023/11/01 15:16:49;;;;;;;;;;;;;;;;;;5057200;28;20256;-69
2023/11/01 15:19:15;;;;;;;;;;;;;;;;;;5049098;28;20032;-69
2023/11/01 15:21:41;;;;;;;;;;;;;;;;;;5024688;28;20015;-69
2023/11/01 15:24:08;;;;;;;;;;;;;;;;;;5060830;28;19932;-68
2023/11/01 15:26:35;;;;;;;;;;;;;;;;;;5043086;28;20289;-69
2023/11/01 15:29:01;;;;;;;;;;;;;;;;;;5050822;28;19978;-69
2023/11/01 15:31:27;;;;;;;;;;;;;;;;;;5046574;28;20298;-68
2023/11/01 15:33:53;;;;;;;;;;;;;;;;;;5052494;28;19971;-69
2023/11/01 15:36:19;;;;;;;;;;;;;;;;;;5051582;28;20010;-69
2023/11/01 15:38:44;;;;;;;;;;;;;;;;;;5055153;28;19921;-68
2023/11/01 15:41:10;;;;;;;;;;;;;;;;;;5064005;28;19928;-68
2023/11/01 15:43:36;;;;;;;;;;;;;;;;;;5047064;28;20313;-71
2023/11/01 15:46:02;;;;;;;;;;;;;;;;;;5022956;28;19931;-72
2023/11/01 15:48:28;;;;;;;;;;;;;;;;;;5036246;28;19925;-71
2023/11/01 15:50:54;;;;;;;;;;;;;;;;;;5040914;28;19924;-71
2023/11/01 15:53:23;;;;;;;;;;;;;;;;;;5042988;28;19924;-71
2023/11/01 15:55:48;;;;;;;;;;;;;;;;;;5033261;28;19925;-71
2023/11/01 15:58:14;;;;;;;;;;;;;;;;;;5046268;28;19941;-72
2023/11/01 16:00:40;;;;;;;;;;;;;;;;;;5026342;28;19925;-72
2023/11/01 16:03:07;;;;;;;;;;;;;;;;;;5046785;28;19927;-72
2023/11/01 16:05:33;;;;;;;;;;;;;;;;;;5064670;28;19935;-72
2023/11/01 16:07:59;;;;;;;;;;;;;;;;;;5039572;28;19925;-70
2023/11/01 16:10:25;;;;;;;;;;;;;;;;;;5037190;28;19935;-70
2023/11/01 16:12:51;;;;;;;;;;;;;;;;;;5055635;28;19971;-70
2023/11/01 16:15:17;;;;;;;;;;;;;;;;;;5052978;28;19996;-71
2023/11/01 16:17:43;;;;;;;;;;;;;;;;;;5037001;28;20501;-71
2023/11/01 16:20:09;;;;;;;;;;;;;;;;;;5032589;28;19921;-72
2023/11/01 16:22:35;;;;;;;;;;;;;;;;;;5035162;28;19927;-72
2023/11/01 16:25:00;;;;;;;;;;;;;;;;;;5054488;28;20414;-72
2023/11/01 16:27:26;;;;;;;;;;;;;;;;;;5035554;28;19936;-72
2023/11/01 16:29:52;;;;;;;;;;;;;;;;;;5034724;28;19920;-71
2023/11/01 16:32:18;;;;;;;;;;;;;;;;;;5056212;28;19920;-72
2023/11/01 16:34:45;;;;;;;;;;;;;;;;;;5046379;28;19935;-72
2023/11/01 16:37:11;;;;;;;;;;;;;;;;;;5054812;28;19921;-72